Time;durP1;ratioP1;P1;durP2;ratioP2;P2;SDS_P1;SDS_P2;PMS_P1;PMS_P2;Temp;Humidity;BMP_temperature;BMP_pressure;BME280_temperature;BME280_humidity;BME280_pressure;Samples;Min_cycle;Max_cycle;Signal;HPM_P1;HPM_P2
2022/04/19 00:01:40;;;;;;;;;;;;;;;;;;5042318;28;1239;-68
2022/04/19 00:04:05;;;;;;;;;;;;;;;;;;5042182;28;866;-68
2022/04/19 00:06:30;;;;;;;;;;;;;;;;;;5042128;28;884;-68
2022/04/19 00:08:56;;;;;;;;;;;;;;;;;;5042329;28;1969;-68
2022/04/19 00:11:21;;;;;;;;;;;;;;;;;;5042097;28;854;-68
2022/04/19 00:13:46;;;;;;;;;;;;;;;;;;5041766;28;1181;-68
2022/04/19 00:16:14;;;;;;;;;;;;;;;;;;5042003;28;935;-68
2022/04/19 00:18:39;;;;;;;;;;;;;;;;;;5041715;28;879;-68
2022/04/19 00:21:04;;;;;;;;;;;;;;;;;;5042016;28;1038;-68
2022/04/19 00:23:29;;;;;;;;;;;;;;;;;;5041539;28;1196;-68
2022/04/19 00:25:55;;;;;;;;;;;;;;;;;;5041856;28;998;-68
2022/04/19 00:28:20;;;;;;;;;;;;;;;;;;5042009;28;890;-68
2022/04/19 00:30:47;;;;;;;;;;;;;;;;;;5041962;28;1968;-68
2022/04/19 00:33:12;;;;;;;;;;;;;;;;;;5041575;28;1359;-68
2022/04/19 00:35:37;;;;;;;;;;;;;;;;;;5041822;28;844;-68
2022/04/19 00:38:02;;;;;;;;;;;;;;;;;;5041719;28;1201;-67
2022/04/19 00:40:28;;;;;;;;;;;;;;;;;;5041856;28;1025;-67
2022/04/19 00:42:56;;;;;;;;;;;;;;;;;;5041466;28;1279;-67
2022/04/19 00:45:22;;;;;;;;;;;;;;;;;;5040576;28;1321;-68
2022/04/19 00:47:48;;;;;;;;;;;;;;;;;;5041594;28;903;-68
2022/04/19 00:50:13;;;;;;;;;;;;;;;;;;5041622;28;1898;-67
2022/04/19 00:52:38;;;;;;;;;;;;;;;;;;5041277;28;1271;-68
2022/04/19 00:55:04;;;;;;;;;;;;;;;;;;5041552;28;856;-67
2022/04/19 00:57:30;;;;;;;;;;;;;;;;;;5040754;28;1070;-67
2022/04/19 00:59:56;;;;;;;;;;;;;;;;;;5041376;28;821;-67
2022/04/19 01:02:22;;;;;;;;;;;;;;;;;;5041172;28;1168;-67
2022/04/19 01:04:48;;;;;;;;;;;;;;;;;;5041599;28;808;-67
2022/04/19 01:07:14;;;;;;;;;;;;;;;;;;5041307;28;840;-68
2022/04/19 01:09:39;;;;;;;;;;;;;;;;;;5040068;28;1975;-68
2022/04/19 01:14:49;;;;;;;;;;;;;;;;;;5041661;28;626;-68
2022/04/19 01:17:14;;;;;;;;;;;;;;;;;;5041162;28;1013;-68
2022/04/19 01:19:40;;;;;;;;;;;;;;;;;;5041406;28;902;-68
2022/04/19 01:22:05;;;;;;;;;;;;;;;;;;5039531;28;1326;-68
2022/04/19 01:24:31;;;;;;;;;;;;;;;;;;5041138;28;816;-68
2022/04/19 01:26:57;;;;;;;;;;;;;;;;;;5041128;28;895;-68
2022/04/19 01:29:24;;;;;;;;;;;;;;;;;;5040875;28;1953;-68
2022/04/19 01:31:51;;;;;;;;;;;;;;;;;;5039964;28;1271;-68
2022/04/19 01:34:16;;;;;;;;;;;;;;;;;;5041248;28;840;-68
2022/04/19 01:36:41;;;;;;;;;;;;;;;;;;5040891;28;1092;-68
2022/04/19 01:39:10;;;;;;;;;;;;;;;;;;5040948;28;958;-68
2022/04/19 01:41:36;;;;;;;;;;;;;;;;;;5041101;28;1224;-68
2022/04/19 01:44:05;;;;;;;;;;;;;;;;;;5039451;28;863;-68
2022/04/19 01:46:31;;;;;;;;;;;;;;;;;;5039634;28;1294;-68
2022/04/19 01:48:57;;;;;;;;;;;;;;;;;;5040670;28;1953;-68
2022/04/19 01:51:22;;;;;;;;;;;;;;;;;;5040852;28;945;-68
2022/04/19 01:53:49;;;;;;;;;;;;;;;;;;5040433;28;1196;-68
2022/04/19 01:56:14;;;;;;;;;;;;;;;;;;5040732;28;891;-68
2022/04/19 01:58:39;;;;;;;;;;;;;;;;;;5040054;28;1065;-68
2022/04/19 02:01:04;;;;;;;;;;;;;;;;;;5040549;28;824;-68
2022/04/19 02:03:29;;;;;;;;;;;;;;;;;;5040267;28;1263;-68
2022/04/19 02:06:36;;;;;;;;;;;;;;;;;;5040585;28;998;-67
2022/04/19 02:09:03;;;;;;;;;;;;;;;;;;4998744;28;1902;-67
2022/04/19 02:14:32;;;;;;;;;;;;;;;;;;4940562;29;1076;-68
2022/04/19 02:16:57;;;;;;;;;;;;;;;;;;4995925;28;1055;-67
2022/04/19 02:19:22;;;;;;;;;;;;;;;;;;5002036;28;1046;-67
2022/04/19 02:21:48;;;;;;;;;;;;;;;;;;5040201;28;1311;-67
2022/04/19 02:24:13;;;;;;;;;;;;;;;;;;5040324;28;827;-67
2022/04/19 02:26:38;;;;;;;;;;;;;;;;;;5040519;28;827;-68
2022/04/19 02:29:03;;;;;;;;;;;;;;;;;;5040272;28;1910;-67
2022/04/19 02:31:29;;;;;;;;;;;;;;;;;;5040314;28;1009;-67
2022/04/19 02:33:56;;;;;;;;;;;;;;;;;;5039993;28;1195;-68
2022/04/19 02:36:21;;;;;;;;;;;;;;;;;;5040289;28;900;-68
2022/04/19 02:38:46;;;;;;;;;;;;;;;;;;5039649;28;773;-68
2022/04/19 02:41:11;;;;;;;;;;;;;;;;;;5040353;28;902;-67
2022/04/19 02:43:38;;;;;;;;;;;;;;;;;;5043303;28;1283;-67
2022/04/19 02:46:04;;;;;;;;;;;;;;;;;;5043513;28;870;-68
2022/04/19 02:48:30;;;;;;;;;;;;;;;;;;5042174;28;868;-67
2022/04/19 02:50:55;;;;;;;;;;;;;;;;;;5043504;28;1886;-68
2022/04/19 02:53:21;;;;;;;;;;;;;;;;;;5043157;28;1182;-67
2022/04/19 02:55:46;;;;;;;;;;;;;;;;;;5043455;28;836;-67
2022/04/19 02:58:11;;;;;;;;;;;;;;;;;;5050141;28;1056;-67
2022/04/19 03:00:37;;;;;;;;;;;;;;;;;;5063634;28;733;-67
2022/04/19 03:03:02;;;;;;;;;;;;;;;;;;5063042;28;1282;-68
2022/04/19 03:05:27;;;;;;;;;;;;;;;;;;5063285;28;1022;-67
2022/04/19 03:07:52;;;;;;;;;;;;;;;;;;5061853;28;1340;-68
2022/04/19 03:10:18;;;;;;;;;;;;;;;;;;5063141;28;1959;-68
2022/04/19 03:12:43;;;;;;;;;;;;;;;;;;5062882;28;1188;-68
2022/04/19 03:15:11;;;;;;;;;;;;;;;;;;5063070;28;831;-67
2022/04/19 03:17:36;;;;;;;;;;;;;;;;;;5063055;28;867;-68
2022/04/19 03:20:02;;;;;;;;;;;;;;;;;;5063146;28;863;-67
2022/04/19 03:27:41;;;;;;;;;;;;;;;;;;5062748;28;1199;-67
2022/04/19 03:28:00;;;;;;;;;;;;;;;;;;5062837;28;1017;-68
2022/04/19 03:30:25;;;;;;;;;;;;;;;;;;5063021;28;1885;-68
2022/04/19 03:32:53;;;;;;;;;;;;;;;;;;5062539;28;1282;-68
2022/04/19 03:35:18;;;;;;;;;;;;;;;;;;5062776;28;926;-68
2022/04/19 03:37:43;;;;;;;;;;;;;;;;;;5062557;28;927;-68
2022/04/19 03:40:09;;;;;;;;;;;;;;;;;;5062519;28;792;-68
2022/04/19 03:42:34;;;;;;;;;;;;;;;;;;5062617;28;1244;-67
2022/04/19 03:44:59;;;;;;;;;;;;;;;;;;5062616;28;812;-68
2022/04/19 03:47:24;;;;;;;;;;;;;;;;;;5062756;28;828;-68
2022/04/19 03:49:50;;;;;;;;;;;;;;;;;;5062579;28;1961;-68
2022/04/19 03:52:15;;;;;;;;;;;;;;;;;;5062178;28;1207;-68
2022/04/19 03:54:40;;;;;;;;;;;;;;;;;;5061643;28;997;-68
2022/04/19 03:57:07;;;;;;;;;;;;;;;;;;5062693;28;847;-68
2022/04/19 03:59:32;;;;;;;;;;;;;;;;;;5062335;28;859;-68
2022/04/19 04:01:58;;;;;;;;;;;;;;;;;;5062041;28;1711;-68
2022/04/19 04:04:23;;;;;;;;;;;;;;;;;;5062348;28;902;-68
2022/04/19 04:06:49;;;;;;;;;;;;;;;;;;5062255;28;950;-68
2022/04/19 04:09:14;;;;;;;;;;;;;;;;;;5062079;28;1897;-68
2022/04/19 04:11:39;;;;;;;;;;;;;;;;;;5062356;28;1282;-68
2022/04/19 04:14:04;;;;;;;;;;;;;;;;;;5062011;28;914;-68
2022/04/19 04:16:29;;;;;;;;;;;;;;;;;;5062176;28;839;-68
2022/04/19 04:18:55;;;;;;;;;;;;;;;;;;5062118;28;1010;-68
2022/04/19 04:21:20;;;;;;;;;;;;;;;;;;5060704;28;1546;-68
2022/04/19 04:23:45;;;;;;;;;;;;;;;;;;5061793;28;1188;-68
2022/04/19 04:26:11;;;;;;;;;;;;;;;;;;5061027;28;1408;-67
2022/04/19 04:28:36;;;;;;;;;;;;;;;;;;5061663;28;879;-68
2022/04/19 04:31:01;;;;;;;;;;;;;;;;;;5061800;28;1967;-68
2022/04/19 04:33:26;;;;;;;;;;;;;;;;;;5061610;28;1196;-68
2022/04/19 04:35:51;;;;;;;;;;;;;;;;;;5061715;28;878;-67
2022/04/19 04:38:16;;;;;;;;;;;;;;;;;;5061673;28;1013;-68
2022/04/19 04:40:42;;;;;;;;;;;;;;;;;;5061743;28;914;-68
2022/04/19 04:43:07;;;;;;;;;;;;;;;;;;5061702;28;1200;-68
2022/04/19 04:45:32;;;;;;;;;;;;;;;;;;5061657;28;898;-67
2022/04/19 04:50:41;;;;;;;;;;;;;;;;;;5061337;28;1905;-68
2022/04/19 04:53:06;;;;;;;;;;;;;;;;;;5061567;28;1200;-68
2022/04/19 04:55:32;;;;;;;;;;;;;;;;;;5061522;28;800;-68
2022/04/19 04:57:59;;;;;;;;;;;;;;;;;;5061549;28;875;-68
2022/04/19 05:00:27;;;;;;;;;;;;;;;;;;5061243;28;902;-68
2022/04/19 05:02:53;;;;;;;;;;;;;;;;;;5061238;28;1259;-68
2022/04/19 05:05:18;;;;;;;;;;;;;;;;;;5061516;28;776;-68
2022/04/19 05:07:43;;;;;;;;;;;;;;;;;;5061449;28;919;-68
2022/04/19 05:10:09;;;;;;;;;;;;;;;;;;5060811;28;1968;-68
2022/04/19 05:12:34;;;;;;;;;;;;;;;;;;5060952;28;1208;-68
2022/04/19 05:15:00;;;;;;;;;;;;;;;;;;5061073;28;873;-68
2022/04/19 05:17:25;;;;;;;;;;;;;;;;;;5061130;28;892;-68
2022/04/19 05:19:52;;;;;;;;;;;;;;;;;;5060699;28;851;-68
2022/04/19 05:22:17;;;;;;;;;;;;;;;;;;5060804;28;1137;-68
2022/04/19 05:24:42;;;;;;;;;;;;;;;;;;5061390;28;882;-68
2022/04/19 05:27:07;;;;;;;;;;;;;;;;;;5061079;28;1056;-68
2022/04/19 05:29:33;;;;;;;;;;;;;;;;;;5060970;28;1926;-68
2022/04/19 05:31:58;;;;;;;;;;;;;;;;;;5059500;28;1440;-68
2022/04/19 05:34:23;;;;;;;;;;;;;;;;;;5061048;28;922;-68
2022/04/19 05:36:48;;;;;;;;;;;;;;;;;;5060888;28;854;-68
2022/04/19 05:39:13;;;;;;;;;;;;;;;;;;5060924;28;895;-68
2022/04/19 05:41:39;;;;;;;;;;;;;;;;;;5060812;28;1257;-68
2022/04/19 05:44:05;;;;;;;;;;;;;;;;;;5060933;28;839;-68
2022/04/19 05:46:30;;;;;;;;;;;;;;;;;;5060871;28;914;-68
2022/04/19 05:48:56;;;;;;;;;;;;;;;;;;5060512;28;918;-68
2022/04/19 05:51:21;;;;;;;;;;;;;;;;;;5060202;28;1890;-68
2022/04/19 05:53:46;;;;;;;;;;;;;;;;;;5060703;28;1184;-68
2022/04/19 05:56:11;;;;;;;;;;;;;;;;;;5060678;28;1002;-68
2022/04/19 05:58:37;;;;;;;;;;;;;;;;;;5060702;28;907;-68
2022/04/19 06:01:02;;;;;;;;;;;;;;;;;;5060454;28;875;-68
2022/04/19 06:06:11;;;;;;;;;;;;;;;;;;5060544;28;638;-68
2022/04/19 06:08:36;;;;;;;;;;;;;;;;;;5060642;28;978;-68
2022/04/19 06:11:01;;;;;;;;;;;;;;;;;;5060280;28;1961;-69
2022/04/19 06:13:27;;;;;;;;;;;;;;;;;;5060306;28;1279;-68
2022/04/19 06:15:53;;;;;;;;;;;;;;;;;;5060423;28;878;-69
2022/04/19 06:18:18;;;;;;;;;;;;;;;;;;5063671;28;903;-68
2022/04/19 06:20:43;;;;;;;;;;;;;;;;;;5062487;28;962;-69
2022/04/19 06:23:09;;;;;;;;;;;;;;;;;;5063671;28;1180;-68
2022/04/19 06:25:34;;;;;;;;;;;;;;;;;;5063854;28;954;-68
2022/04/19 06:27:59;;;;;;;;;;;;;;;;;;5063856;28;815;-69
2022/04/19 06:30:24;;;;;;;;;;;;;;;;;;5063677;28;1878;-68
2022/04/19 06:32:50;;;;;;;;;;;;;;;;;;5063484;28;1271;-68
2022/04/19 06:35:16;;;;;;;;;;;;;;;;;;5063652;28;875;-68
2022/04/19 06:37:41;;;;;;;;;;;;;;;;;;5063659;28;997;-69
2022/04/19 06:40:06;;;;;;;;;;;;;;;;;;5063521;28;954;-68
2022/04/19 06:42:32;;;;;;;;;;;;;;;;;;5063421;28;1307;-69
2022/04/19 06:44:57;;;;;;;;;;;;;;;;;;5063527;28;855;-69
2022/04/19 06:47:25;;;;;;;;;;;;;;;;;;5063468;28;835;-69
2022/04/19 06:49:51;;;;;;;;;;;;;;;;;;5061736;28;1898;-69
2022/04/19 06:52:16;;;;;;;;;;;;;;;;;;5063116;28;1270;-68
2022/04/19 06:54:42;;;;;;;;;;;;;;;;;;5063564;28;899;-68
2022/04/19 06:57:07;;;;;;;;;;;;;;;;;;5063647;28;855;-69
2022/04/19 06:59:32;;;;;;;;;;;;;;;;;;5063410;28;796;-69
2022/04/19 07:01:57;;;;;;;;;;;;;;;;;;5063183;28;1212;-69
2022/04/19 07:04:22;;;;;;;;;;;;;;;;;;5063395;28;899;-69
2022/04/19 07:06:48;;;;;;;;;;;;;;;;;;5061804;28;880;-69
2022/04/19 07:09:13;;;;;;;;;;;;;;;;;;5061806;28;1910;-69
2022/04/19 07:11:38;;;;;;;;;;;;;;;;;;5063011;28;1247;-69
2022/04/19 07:14:04;;;;;;;;;;;;;;;;;;5062907;28;1068;-69
2022/04/19 07:16:29;;;;;;;;;;;;;;;;;;5062855;28;831;-69
2022/04/19 07:18:54;;;;;;;;;;;;;;;;;;5063165;28;942;-69
2022/04/19 07:26:48;;;;;;;;;;;;;;;;;;5063063;28;642;-69
2022/04/19 07:29:18;;;;;;;;;;;;;;;;;;5061470;28;1881;-69
2022/04/19 07:31:44;;;;;;;;;;;;;;;;;;5062361;28;1224;-69
2022/04/19 07:34:10;;;;;;;;;;;;;;;;;;5063062;28;820;-68
2022/04/19 07:36:37;;;;;;;;;;;;;;;;;;5062819;28;874;-69
2022/04/19 07:39:05;;;;;;;;;;;;;;;;;;5062798;28;850;-69
2022/04/19 07:41:31;;;;;;;;;;;;;;;;;;5062500;28;970;-69
2022/04/19 07:43:56;;;;;;;;;;;;;;;;;;5062426;28;1207;-69
2022/04/19 07:46:21;;;;;;;;;;;;;;;;;;5062655;28;962;-69
2022/04/19 07:48:51;;;;;;;;;;;;;;;;;;5062676;28;946;-69
2022/04/19 07:51:17;;;;;;;;;;;;;;;;;;5062258;28;1902;-69
2022/04/19 07:53:42;;;;;;;;;;;;;;;;;;5062303;28;1188;-68
2022/04/19 07:56:08;;;;;;;;;;;;;;;;;;5062471;28;965;-69
2022/04/19 07:58:33;;;;;;;;;;;;;;;;;;5062425;28;1041;-69
2022/04/19 08:01:01;;;;;;;;;;;;;;;;;;5062348;28;831;-69
2022/04/19 08:03:27;;;;;;;;;;;;;;;;;;5062058;28;1342;-69
2022/04/19 08:05:52;;;;;;;;;;;;;;;;;;5062398;28;891;-69
2022/04/19 08:08:18;;;;;;;;;;;;;;;;;;5062282;28;1076;-69
2022/04/19 08:10:43;;;;;;;;;;;;;;;;;;5062087;28;1971;-68
2022/04/19 08:13:09;;;;;;;;;;;;;;;;;;5062167;28;1184;-69
2022/04/19 08:15:34;;;;;;;;;;;;;;;;;;5062037;28;951;-69
2022/04/19 08:17:59;;;;;;;;;;;;;;;;;;5062238;28;981;-69
2022/04/19 08:20:25;;;;;;;;;;;;;;;;;;5062153;28;816;-69
2022/04/19 08:22:50;;;;;;;;;;;;;;;;;;5061832;28;1285;-69
2022/04/19 08:25:15;;;;;;;;;;;;;;;;;;5062027;28;832;-68
2022/04/19 08:27:42;;;;;;;;;;;;;;;;;;5061984;28;828;-69
2022/04/19 08:30:08;;;;;;;;;;;;;;;;;;5061855;28;1906;-69
2022/04/19 08:32:33;;;;;;;;;;;;;;;;;;5061623;28;1207;-69
2022/04/19 08:34:58;;;;;;;;;;;;;;;;;;5061903;28;839;-69
2022/04/19 08:37:28;;;;;;;;;;;;;;;;;;5061742;28;997;-69
2022/04/19 08:39:53;;;;;;;;;;;;;;;;;;5061297;28;740;-69
2022/04/19 08:42:19;;;;;;;;;;;;;;;;;;5061282;28;1294;-69
2022/04/19 08:44:45;;;;;;;;;;;;;;;;;;5061990;28;910;-69
2022/04/19 08:47:11;;;;;;;;;;;;;;;;;;5061882;28;836;-69
2022/04/19 08:49:39;;;;;;;;;;;;;;;;;;5060310;28;1971;-68
2022/04/19 08:52:04;;;;;;;;;;;;;;;;;;5061162;28;1204;-68
2022/04/19 08:57:29;;;;;;;;;;;;;;;;;;5061607;28;705;-69
2022/04/19 08:59:54;;;;;;;;;;;;;;;;;;5061531;28;882;-69
2022/04/19 09:02:21;;;;;;;;;;;;;;;;;;5061070;28;1279;-69
2022/04/19 09:04:46;;;;;;;;;;;;;;;;;;5061518;28;828;-69
2022/04/19 09:07:11;;;;;;;;;;;;;;;;;;5061270;28;914;-69
2022/04/19 09:09:38;;;;;;;;;;;;;;;;;;5061295;28;1963;-70
2022/04/19 09:12:06;;;;;;;;;;;;;;;;;;5060377;28;1310;-70
2022/04/19 09:14:31;;;;;;;;;;;;;;;;;;5061198;28;906;-69
2022/04/19 09:17:06;;;;;;;;;;;;;;;;;;5061328;28;899;-69
2022/04/19 09:19:31;;;;;;;;;;;;;;;;;;5059981;28;1312;-69
2022/04/19 09:21:57;;;;;;;;;;;;;;;;;;5060800;28;1236;-71
2022/04/19 09:24:23;;;;;;;;;;;;;;;;;;5061270;28;922;-71
2022/04/19 09:26:48;;;;;;;;;;;;;;;;;;5061083;28;985;-69
2022/04/19 09:29:21;;;;;;;;;;;;;;;;;;5061672;28;1894;-68
2022/04/19 09:31:50;;;;;;;;;;;;;;;;;;5060712;28;1288;-68
2022/04/19 09:34:27;;;;;;;;;;;;;;;;;;5060974;28;894;-68
2022/04/19 09:36:53;;;;;;;;;;;;;;;;;;5060986;28;812;-68
2022/04/19 09:39:24;;;;;;;;;;;;;;;;;;5061427;28;826;-68
2022/04/19 09:41:58;;;;;;;;;;;;;;;;;;5060401;28;1173;-68
2022/04/19 09:44:24;;;;;;;;;;;;;;;;;;5060856;28;899;-69
2022/04/19 09:47:02;;;;;;;;;;;;;;;;;;5060727;28;1025;-68
2022/04/19 09:49:44;;;;;;;;;;;;;;;;;;5060753;28;2004;-67
2022/04/19 09:52:11;;;;;;;;;;;;;;;;;;5061369;28;1192;-68
2022/04/19 09:54:36;;;;;;;;;;;;;;;;;;5064539;28;875;-68
2022/04/19 09:57:07;;;;;;;;;;;;;;;;;;5064374;28;835;-68
2022/04/19 09:59:33;;;;;;;;;;;;;;;;;;5064475;28;1046;-68
2022/04/19 10:10:11;;;;;;;;;;;;;;;;;;5064448;28;1902;-68
2022/04/19 10:12:36;;;;;;;;;;;;;;;;;;5063543;28;1266;-68
2022/04/19 10:15:03;;;;;;;;;;;;;;;;;;5063913;28;887;-68
2022/04/19 10:17:29;;;;;;;;;;;;;;;;;;5064001;28;800;-68
2022/04/19 10:19:55;;;;;;;;;;;;;;;;;;5063995;28;848;-69
2022/04/19 10:22:20;;;;;;;;;;;;;;;;;;5063355;28;1164;-68
2022/04/19 10:24:47;;;;;;;;;;;;;;;;;;5064045;28;973;-68
2022/04/19 10:27:12;;;;;;;;;;;;;;;;;;5063759;28;847;-69
2022/04/19 10:29:37;;;;;;;;;;;;;;;;;;5063694;28;1897;-68
2022/04/19 10:32:07;;;;;;;;;;;;;;;;;;5063296;28;1290;-69
2022/04/19 10:34:34;;;;;;;;;;;;;;;;;;5062489;28;1293;-68
2022/04/19 10:37:11;;;;;;;;;;;;;;;;;;5063635;28;831;-68
2022/04/19 10:39:43;;;;;;;;;;;;;;;;;;5064028;28;823;-68
2022/04/19 10:42:24;;;;;;;;;;;;;;;;;;5063115;28;1254;-68
2022/04/19 10:44:50;;;;;;;;;;;;;;;;;;5063687;28;906;-68
2022/04/19 10:47:16;;;;;;;;;;;;;;;;;;5063779;28;910;-68
2022/04/19 10:49:48;;;;;;;;;;;;;;;;;;5063553;28;1953;-68
2022/04/19 10:52:33;;;;;;;;;;;;;;;;;;5062978;28;1188;-68
2022/04/19 10:55:06;;;;;;;;;;;;;;;;;;5063590;28;922;-68
2022/04/19 10:58:12;;;;;;;;;;;;;;;;;;5063250;28;886;-67
2022/04/19 11:00:40;;;;;;;;;;;;;;;;;;5062626;28;1138;-67
2022/04/19 11:03:06;;;;;;;;;;;;;;;;;;5062601;28;1199;-68
2022/04/19 11:05:43;;;;;;;;;;;;;;;;;;5063215;28;957;-68
2022/04/19 11:08:24;;;;;;;;;;;;;;;;;;5063203;28;844;-68
2022/04/19 11:10:50;;;;;;;;;;;;;;;;;;5063362;28;1890;-68
2022/04/19 11:13:15;;;;;;;;;;;;;;;;;;5061395;28;1321;-68
2022/04/19 11:15:43;;;;;;;;;;;;;;;;;;5062949;28;954;-68
2022/04/19 11:18:39;;;;;;;;;;;;;;;;;;5063122;28;902;-68
2022/04/19 11:21:05;;;;;;;;;;;;;;;;;;5026058;28;1195;-68
2022/04/19 11:23:43;;;;;;;;;;;;;;;;;;5062123;28;1211;-68
2022/04/19 11:26:28;;;;;;;;;;;;;;;;;;5062895;28;973;-68
2022/04/19 11:29:12;;;;;;;;;;;;;;;;;;5062730;28;1491;-68
2022/04/19 11:31:43;;;;;;;;;;;;;;;;;;5062461;28;1959;-67
2022/04/19 11:34:14;;;;;;;;;;;;;;;;;;5062712;28;890;-68
2022/04/19 11:36:40;;;;;;;;;;;;;;;;;;5062846;28;1009;-68
2022/04/19 11:39:05;;;;;;;;;;;;;;;;;;5063062;28;839;-67
2022/04/19 11:47:02;;;;;;;;;;;;;;;;;;5051283;28;1243;-68
2022/04/19 11:49:27;;;;;;;;;;;;;;;;;;5062528;28;1959;-68
2022/04/19 11:51:56;;;;;;;;;;;;;;;;;;5062344;28;1279;-68
2022/04/19 11:54:25;;;;;;;;;;;;;;;;;;5062475;28;934;-68
2022/04/19 11:56:54;;;;;;;;;;;;;;;;;;5062438;28;879;-68
2022/04/19 11:59:39;;;;;;;;;;;;;;;;;;5062528;28;938;-67
2022/04/19 12:02:12;;;;;;;;;;;;;;;;;;5061394;28;1316;-67
2022/04/19 12:04:38;;;;;;;;;;;;;;;;;;5062565;28;757;-67
2022/04/19 12:07:05;;;;;;;;;;;;;;;;;;5062387;28;856;-67
2022/04/19 12:09:31;;;;;;;;;;;;;;;;;;5062640;28;1905;-67
2022/04/19 12:11:56;;;;;;;;;;;;;;;;;;5061870;28;1188;-68
2022/04/19 12:14:25;;;;;;;;;;;;;;;;;;5061708;28;879;-67
2022/04/19 12:16:55;;;;;;;;;;;;;;;;;;5062444;28;816;-68
2022/04/19 12:19:30;;;;;;;;;;;;;;;;;;5062189;28;938;-68
2022/04/19 12:21:56;;;;;;;;;;;;;;;;;;5061886;28;1192;-68
2022/04/19 12:24:22;;;;;;;;;;;;;;;;;;5061902;28;879;-68
2022/04/19 12:27:03;;;;;;;;;;;;;;;;;;5062068;28;820;-68
2022/04/19 12:29:29;;;;;;;;;;;;;;;;;;5061877;28;1902;-68
2022/04/19 12:31:58;;;;;;;;;;;;;;;;;;5061505;28;1274;-67
2022/04/19 12:34:33;;;;;;;;;;;;;;;;;;5061760;28;829;-68
2022/04/19 12:37:04;;;;;;;;;;;;;;;;;;5061717;28;839;-68
2022/04/19 12:39:29;;;;;;;;;;;;;;;;;;5061515;28;1022;-67
2022/04/19 12:42:03;;;;;;;;;;;;;;;;;;5061691;28;1231;-68
2022/04/19 12:44:28;;;;;;;;;;;;;;;;;;5061643;28;1034;-67
2022/04/19 12:46:53;;;;;;;;;;;;;;;;;;5061669;28;926;-67
2022/04/19 12:49:22;;;;;;;;;;;;;;;;;;5061667;28;1956;-68
2022/04/19 12:52:00;;;;;;;;;;;;;;;;;;5061395;28;1950;-67
2022/04/19 12:54:28;;;;;;;;;;;;;;;;;;5043660;28;1032;-68
2022/04/19 12:57:01;;;;;;;;;;;;;;;;;;5041653;28;863;-67
2022/04/19 12:59:26;;;;;;;;;;;;;;;;;;5041669;28;868;-67
2022/04/19 13:01:52;;;;;;;;;;;;;;;;;;5041148;28;1184;-68
2022/04/19 13:04:17;;;;;;;;;;;;;;;;;;5041327;28;912;-67
2022/04/19 13:12:19;;;;;;;;;;;;;;;;;;5041096;28;1311;-67
2022/04/19 13:14:46;;;;;;;;;;;;;;;;;;5041273;28;921;-67
2022/04/19 13:17:14;;;;;;;;;;;;;;;;;;5041251;28;827;-68
2022/04/19 13:19:42;;;;;;;;;;;;;;;;;;5041278;28;863;-67
2022/04/19 13:22:08;;;;;;;;;;;;;;;;;;5040949;28;1208;-67
2022/04/19 13:24:33;;;;;;;;;;;;;;;;;;5041037;28;843;-67
2022/04/19 13:26:59;;;;;;;;;;;;;;;;;;5041065;28;840;-68
2022/04/19 13:29:24;;;;;;;;;;;;;;;;;;5041045;28;1906;-67
2022/04/19 13:31:49;;;;;;;;;;;;;;;;;;5040691;28;1180;-67
2022/04/19 13:34:15;;;;;;;;;;;;;;;;;;5041115;28;804;-67
2022/04/19 13:36:40;;;;;;;;;;;;;;;;;;5040905;28;835;-68
2022/04/19 13:39:05;;;;;;;;;;;;;;;;;;5041106;28;859;-68
2022/04/19 13:41:31;;;;;;;;;;;;;;;;;;5041042;28;835;-68
2022/04/19 13:43:56;;;;;;;;;;;;;;;;;;5040757;28;1224;-68
2022/04/19 13:46:21;;;;;;;;;;;;;;;;;;5040743;28;886;-68
2022/04/19 13:48:46;;;;;;;;;;;;;;;;;;5041161;28;916;-68
2022/04/19 13:51:11;;;;;;;;;;;;;;;;;;5040717;28;1957;-68
2022/04/19 13:53:37;;;;;;;;;;;;;;;;;;5040569;28;1192;-68
2022/04/19 13:56:03;;;;;;;;;;;;;;;;;;5040820;28;836;-68
2022/04/19 13:58:28;;;;;;;;;;;;;;;;;;5040816;28;892;-68
2022/04/19 14:00:53;;;;;;;;;;;;;;;;;;5040586;28;970;-67
2022/04/19 14:03:19;;;;;;;;;;;;;;;;;;5040245;28;1188;-68
2022/04/19 14:05:44;;;;;;;;;;;;;;;;;;5040900;28;966;-68
2022/04/19 14:08:10;;;;;;;;;;;;;;;;;;5040531;28;825;-67
2022/04/19 14:10:36;;;;;;;;;;;;;;;;;;5039208;28;1961;-68
2022/04/19 14:13:01;;;;;;;;;;;;;;;;;;5040162;28;1315;-68
2022/04/19 14:15:27;;;;;;;;;;;;;;;;;;5038814;28;1045;-68
2022/04/19 14:17:53;;;;;;;;;;;;;;;;;;5040397;28;800;-68
2022/04/19 14:20:18;;;;;;;;;;;;;;;;;;5040294;28;847;-68
2022/04/19 14:22:43;;;;;;;;;;;;;;;;;;5040004;28;1180;-68
2022/04/19 14:25:08;;;;;;;;;;;;;;;;;;5040358;28;827;-67
2022/04/19 14:27:33;;;;;;;;;;;;;;;;;;5040431;28;906;-68
2022/04/19 14:35:26;;;;;;;;;;;;;;;;;;5040191;28;657;-68
2022/04/19 14:37:52;;;;;;;;;;;;;;;;;;5041349;28;883;-68
2022/04/19 14:40:17;;;;;;;;;;;;;;;;;;5043627;28;903;-68
2022/04/19 14:42:43;;;;;;;;;;;;;;;;;;5043298;28;1192;-68
2022/04/19 14:45:09;;;;;;;;;;;;;;;;;;5043399;28;847;-68
2022/04/19 14:47:34;;;;;;;;;;;;;;;;;;5043619;28;898;-68
2022/04/19 14:49:59;;;;;;;;;;;;;;;;;;5043504;28;1959;-68
2022/04/19 14:52:25;;;;;;;;;;;;;;;;;;5043136;28;1204;-68
2022/04/19 14:54:53;;;;;;;;;;;;;;;;;;5042567;28;859;-68
2022/04/19 14:57:19;;;;;;;;;;;;;;;;;;5043314;28;1239;-68
2022/04/19 14:59:46;;;;;;;;;;;;;;;;;;5043385;28;804;-68
2022/04/19 15:02:12;;;;;;;;;;;;;;;;;;5043000;28;1267;-68
2022/04/19 15:04:37;;;;;;;;;;;;;;;;;;5043149;28;887;-68
2022/04/19 15:07:02;;;;;;;;;;;;;;;;;;5043167;28;1039;-68
2022/04/19 15:09:28;;;;;;;;;;;;;;;;;;5043207;28;1961;-67
2022/04/19 15:11:54;;;;;;;;;;;;;;;;;;5042893;28;1262;-68
2022/04/19 15:14:19;;;;;;;;;;;;;;;;;;5042898;28;879;-68
2022/04/19 15:16:45;;;;;;;;;;;;;;;;;;5042934;28;844;-68
2022/04/19 15:19:10;;;;;;;;;;;;;;;;;;5043133;28;897;-68
2022/04/19 15:21:35;;;;;;;;;;;;;;;;;;5042914;28;1220;-68
2022/04/19 15:24:01;;;;;;;;;;;;;;;;;;5042767;28;1119;-67
2022/04/19 15:26:26;;;;;;;;;;;;;;;;;;5043012;28;879;-68
2022/04/19 15:28:51;;;;;;;;;;;;;;;;;;5042980;28;879;-68
2022/04/19 15:31:16;;;;;;;;;;;;;;;;;;5042767;28;1897;-67
2022/04/19 15:33:42;;;;;;;;;;;;;;;;;;5042402;28;1188;-68
2022/04/19 15:36:07;;;;;;;;;;;;;;;;;;5042741;28;1010;-68
2022/04/19 15:38:32;;;;;;;;;;;;;;;;;;5042857;28;812;-68
2022/04/19 15:40:58;;;;;;;;;;;;;;;;;;5041379;28;844;-68
2022/04/19 15:43:23;;;;;;;;;;;;;;;;;;5041081;28;1198;-68
2022/04/19 15:45:49;;;;;;;;;;;;;;;;;;5042588;28;855;-68
2022/04/19 15:48:16;;;;;;;;;;;;;;;;;;5042529;28;1052;-68
2022/04/19 15:50:43;;;;;;;;;;;;;;;;;;5041312;28;1890;-67
2022/04/19 15:53:09;;;;;;;;;;;;;;;;;;5042152;28;1287;-68
2022/04/19 15:55:34;;;;;;;;;;;;;;;;;;5041050;28;1350;-68
2022/04/19 15:57:59;;;;;;;;;;;;;;;;;;5042604;28;832;-68
2022/04/19 16:00:26;;;;;;;;;;;;;;;;;;5042347;28;824;-68
2022/04/19 16:02:52;;;;;;;;;;;;;;;;;;5042039;28;1212;-68
2022/04/19 16:05:17;;;;;;;;;;;;;;;;;;5042913;28;814;-67
2022/04/19 16:07:42;;;;;;;;;;;;;;;;;;5042287;28;978;-68
2022/04/19 16:10:07;;;;;;;;;;;;;;;;;;5042085;28;1886;-68
2022/04/19 16:12:33;;;;;;;;;;;;;;;;;;5041966;28;1291;-68
2022/04/19 16:14:58;;;;;;;;;;;;;;;;;;5041618;28;903;-68
2022/04/19 16:25:35;;;;;;;;;;;;;;;;;;5042008;28;685;-68
2022/04/19 16:28:01;;;;;;;;;;;;;;;;;;5042006;28;1069;-67
2022/04/19 16:30:26;;;;;;;;;;;;;;;;;;5041860;28;1918;-68
2022/04/19 16:32:51;;;;;;;;;;;;;;;;;;5041494;28;1279;-68
2022/04/19 16:35:17;;;;;;;;;;;;;;;;;;5041762;28;812;-68
2022/04/19 16:37:42;;;;;;;;;;;;;;;;;;5041979;28;847;-68
2022/04/19 16:40:07;;;;;;;;;;;;;;;;;;5041962;28;835;-67
2022/04/19 16:42:32;;;;;;;;;;;;;;;;;;5041731;28;1204;-68
2022/04/19 16:44:58;;;;;;;;;;;;;;;;;;5041871;28;846;-68
2022/04/19 16:47:23;;;;;;;;;;;;;;;;;;5041702;28;820;-68
2022/04/19 16:49:49;;;;;;;;;;;;;;;;;;5041619;28;1972;-68
2022/04/19 16:52:15;;;;;;;;;;;;;;;;;;5041657;28;1200;-68
2022/04/19 16:54:40;;;;;;;;;;;;;;;;;;5041534;28;836;-67
2022/04/19 16:57:05;;;;;;;;;;;;;;;;;;5041476;28;1037;-67
2022/04/19 16:59:31;;;;;;;;;;;;;;;;;;5041575;28;962;-68
2022/04/19 17:01:56;;;;;;;;;;;;;;;;;;5040730;28;1267;-68
2022/04/19 17:04:21;;;;;;;;;;;;;;;;;;5041489;28;812;-68
2022/04/19 17:06:47;;;;;;;;;;;;;;;;;;5041431;28;1029;-68
2022/04/19 17:09:13;;;;;;;;;;;;;;;;;;5041317;28;890;-68
2022/04/19 17:11:39;;;;;;;;;;;;;;;;;;5041242;28;1890;-68
2022/04/19 17:14:05;;;;;;;;;;;;;;;;;;5041285;28;955;-68
2022/04/19 17:16:30;;;;;;;;;;;;;;;;;;5041154;28;840;-69
2022/04/19 17:18:57;;;;;;;;;;;;;;;;;;5041266;28;816;-69
2022/04/19 17:21:22;;;;;;;;;;;;;;;;;;5041500;28;939;-69
2022/04/19 17:23:48;;;;;;;;;;;;;;;;;;5040898;28;1195;-68
2022/04/19 17:26:14;;;;;;;;;;;;;;;;;;5041191;28;1070;-69
2022/04/19 17:28:39;;;;;;;;;;;;;;;;;;5041068;28;820;-68
2022/04/19 17:31:04;;;;;;;;;;;;;;;;;;5041060;28;1910;-68
2022/04/19 17:33:30;;;;;;;;;;;;;;;;;;5040747;28;1248;-69
2022/04/19 17:35:55;;;;;;;;;;;;;;;;;;5040987;28;1018;-68
2022/04/19 17:38:21;;;;;;;;;;;;;;;;;;5041113;28;884;-69
2022/04/19 17:40:46;;;;;;;;;;;;;;;;;;5041078;28;808;-69
2022/04/19 17:43:12;;;;;;;;;;;;;;;;;;5040725;28;1204;-69
2022/04/19 17:45:37;;;;;;;;;;;;;;;;;;5038939;28;848;-69
2022/04/19 17:48:02;;;;;;;;;;;;;;;;;;5040831;28;843;-68
2022/04/19 17:58:40;;;;;;;;;;;;;;;;;;5040897;28;646;-68
2022/04/19 18:01:05;;;;;;;;;;;;;;;;;;5040773;28;1014;-69
2022/04/19 18:03:31;;;;;;;;;;;;;;;;;;5040408;28;1259;-66
2022/04/19 18:05:56;;;;;;;;;;;;;;;;;;5040703;28;1022;-66
2022/04/19 18:08:21;;;;;;;;;;;;;;;;;;5040982;28;943;-66
2022/04/19 18:10:46;;;;;;;;;;;;;;;;;;5040471;28;1972;-66
2022/04/19 18:13:12;;;;;;;;;;;;;;;;;;5041910;28;1216;-69